createdAt,value
2018-08-02T00:00:11.565Z,1.50
2018-08-02T00:02:39.560Z,1.50
2018-08-02T00:05:07.577Z,1.40
2018-08-02T00:07:35.574Z,1.30
2018-08-02T00:10:03.572Z,1.50
2018-08-02T00:12:37.429Z,1.60
2018-08-02T00:15:07.160Z,1.87
2018-08-02T00:17:35.512Z,1.57
2018-08-02T00:20:03.617Z,1.70
2018-08-02T00:22:31.657Z,1.73
2018-08-02T00:24:59.677Z,1.70
2018-08-02T00:27:27.660Z,1.80
2018-08-02T00:29:55.665Z,1.83
2018-08-02T00:32:23.744Z,1.50
2018-08-02T00:34:51.911Z,1.93
2018-08-02T00:37:19.892Z,1.53
2018-08-02T00:39:47.896Z,1.60
2018-08-02T00:42:15.892Z,1.73
2018-08-02T00:44:43.905Z,1.47
2018-08-02T00:47:11.901Z,1.93
2018-08-02T00:49:40.010Z,1.50
2018-08-02T00:52:08.415Z,1.67
2018-08-02T00:54:36.443Z,1.63
2018-08-02T00:57:04.752Z,1.27
2018-08-02T00:59:32.756Z,1.20
2018-08-02T01:02:00.921Z,2.00
2018-08-02T01:04:29.092Z,1.87
2018-08-02T01:06:57.133Z,1.47
2018-08-02T01:09:25.185Z,1.60
2018-08-02T01:11:53.192Z,1.77
2018-08-02T01:14:21.256Z,1.73
2018-08-02T01:16:49.321Z,1.53
2018-08-02T01:19:17.311Z,1.20
2018-08-02T01:21:45.366Z,1.50
2018-08-02T01:24:13.368Z,1.80
2018-08-02T01:26:41.513Z,1.40
2018-08-02T01:29:10.545Z,1.57
2018-08-02T01:31:38.543Z,2.07
2018-08-02T01:34:06.545Z,2.47
2018-08-02T01:36:34.597Z,1.77
2018-08-02T01:39:02.601Z,1.70
2018-08-02T01:41:30.604Z,1.90
2018-08-02T01:44:11.346Z,1.70
2018-08-02T01:46:39.429Z,2.23
2018-08-02T01:49:07.754Z,1.60
2018-08-02T01:51:35.757Z,1.43
2018-08-02T01:54:03.793Z,2.00
2018-08-02T01:56:31.858Z,1.70
2018-08-02T01:58:59.849Z,2.13
2018-08-02T02:01:27.925Z,2.20
2018-08-02T02:03:55.908Z,1.83
2018-08-02T02:06:23.916Z,1.77
2018-08-02T02:08:52.001Z,2.17
2018-08-02T02:11:20.036Z,2.00
2018-08-02T02:13:48.025Z,2.27
2018-08-02T02:16:16.074Z,1.90
2018-08-02T02:18:44.048Z,2.00
2018-08-02T02:21:12.060Z,2.17
2018-08-02T02:23:40.066Z,2.50
2018-08-02T02:26:08.048Z,1.93
2018-08-02T02:28:36.181Z,1.67
2018-08-02T02:31:04.201Z,2.00
2018-08-02T02:33:32.367Z,1.63
2018-08-02T02:36:00.378Z,1.70
2018-08-02T02:38:28.362Z,2.20
2018-08-02T02:40:56.368Z,2.00
2018-08-02T02:43:24.361Z,2.10
2018-08-02T02:45:52.371Z,2.40
2018-08-02T02:48:20.348Z,1.90
2018-08-02T02:50:48.361Z,1.67
2018-08-02T02:53:16.396Z,1.80
2018-08-02T02:55:44.415Z,2.13
2018-08-02T02:58:12.439Z,1.60
2018-08-02T03:00:40.436Z,1.50
2018-08-02T03:03:08.461Z,1.83
2018-08-02T03:05:36.460Z,1.80
2018-08-02T03:08:04.450Z,1.67
2018-08-02T03:10:32.473Z,2.00
2018-08-02T03:13:00.469Z,2.10
2018-08-02T03:15:28.457Z,1.73
2018-08-02T03:17:56.481Z,2.70
2018-08-02T03:20:24.504Z,2.20
2018-08-02T03:22:52.457Z,1.70
2018-08-02T03:25:20.441Z,2.00
2018-08-02T03:27:48.454Z,1.63
2018-08-02T03:30:16.543Z,1.80
2018-08-02T03:32:44.533Z,1.90
2018-08-02T03:35:12.592Z,1.93
2018-08-02T03:37:40.581Z,1.50
2018-08-02T03:40:08.637Z,1.77
2018-08-02T03:42:36.644Z,1.77
2018-08-02T03:45:04.652Z,1.57
2018-08-02T03:47:32.631Z,1.80
2018-08-02T03:50:00.648Z,1.67
2018-08-02T03:52:28.645Z,2.00
2018-08-02T03:54:56.793Z,1.47
2018-08-02T03:57:24.816Z,1.70
2018-08-02T03:59:52.810Z,1.80
2018-08-02T04:02:20.804Z,1.73
2018-08-02T04:04:48.788Z,1.73
2018-08-02T04:07:16.974Z,1.83
2018-08-02T04:09:44.949Z,2.50
2018-08-02T04:12:13.090Z,1.67
2018-08-02T04:14:41.080Z,1.70
2018-08-02T04:17:09.082Z,1.90
2018-08-02T04:19:37.064Z,1.90
2018-08-02T04:22:05.099Z,2.10
2018-08-02T04:24:33.120Z,1.80
2018-08-02T04:27:01.112Z,1.90
2018-08-02T04:29:29.085Z,2.13
2018-08-02T04:31:57.257Z,2.00
2018-08-02T04:34:25.276Z,1.90
2018-08-02T04:36:53.273Z,1.70
2018-08-02T04:39:21.317Z,1.80
2018-08-02T04:41:49.317Z,1.70
2018-08-02T04:44:17.305Z,1.77
2018-08-02T04:46:45.303Z,2.13
2018-08-02T04:49:13.292Z,2.40
2018-08-02T04:51:41.449Z,1.70
2018-08-02T04:54:09.421Z,1.73
2018-08-02T04:56:37.413Z,1.43
2018-08-02T04:59:05.576Z,1.53
2018-08-02T05:01:33.556Z,1.70
2018-08-02T05:04:01.601Z,1.80
2018-08-02T05:06:29.604Z,1.40
2018-08-02T05:08:57.633Z,1.90
2018-08-02T05:11:25.575Z,1.80
2018-08-02T05:13:53.579Z,1.90
2018-08-02T05:16:21.568Z,2.10
2018-08-02T05:18:48.744Z,1.90
2018-08-02T05:21:16.757Z,2.03
2018-08-02T05:23:44.756Z,1.53
2018-08-02T05:26:12.795Z,1.67
2018-08-02T05:28:40.805Z,1.93
2018-08-02T05:31:08.914Z,1.40
2018-08-02T05:33:37.043Z,1.63
2018-08-02T05:36:05.248Z,1.63
2018-08-02T05:38:32.992Z,1.30
2018-08-02T05:41:01.028Z,1.53
2018-08-02T05:43:29.017Z,2.00
2018-08-02T05:45:57.021Z,1.20
2018-08-02T05:48:25.041Z,1.87
2018-08-02T05:50:53.021Z,1.60
2018-08-02T05:53:21.080Z,1.97
2018-08-02T05:55:49.084Z,1.47
2018-08-02T05:58:17.107Z,1.70
2018-08-02T06:00:45.100Z,1.87
2018-08-02T06:03:13.103Z,1.37
2018-08-02T06:05:41.085Z,1.43
2018-08-02T06:08:09.099Z,1.47
2018-08-02T06:10:37.080Z,1.87
2018-08-02T06:13:05.075Z,1.30
2018-08-02T06:15:33.057Z,2.70
2018-08-02T06:18:01.104Z,1.30
2018-08-02T06:20:29.093Z,1.43
2018-08-02T06:22:57.080Z,1.27
2018-08-02T06:25:25.073Z,1.17
2018-08-02T06:27:53.060Z,1.57
2018-08-02T06:30:21.102Z,1.60
2018-08-02T06:32:49.038Z,1.20
2018-08-02T06:35:17.032Z,1.25
2018-08-02T06:37:45.037Z,1.40
2018-08-02T06:40:14.699Z,1.00
2018-08-02T06:42:42.688Z,1.33
2018-08-02T06:45:10.675Z,1.13
2018-08-02T06:47:40.652Z,1.20
2018-08-02T06:50:09.352Z,1.50
2018-08-02T06:52:37.720Z,1.33
2018-08-02T06:55:06.401Z,1.40
2018-08-02T06:57:35.529Z,1.37
2018-08-02T07:00:06.956Z,1.10
2018-08-02T07:02:34.932Z,2.08
2018-08-02T07:05:02.957Z,1.57
2018-08-02T07:07:31.169Z,1.13
2018-08-02T07:09:59.189Z,1.10
2018-08-02T07:12:27.257Z,1.10
2018-08-02T07:14:55.485Z,1.30
2018-08-02T07:17:23.697Z,1.53
2018-08-02T07:19:51.692Z,1.40
2018-08-02T07:22:19.690Z,1.53
2018-08-02T07:24:47.751Z,1.20
2018-08-02T07:27:15.751Z,1.27
2018-08-02T07:29:43.745Z,1.00
2018-08-02T07:32:11.737Z,1.17
2018-08-02T07:34:39.777Z,1.30
2018-08-02T07:37:07.776Z,1.10
2018-08-02T07:39:35.887Z,1.07
2018-08-02T07:42:03.900Z,1.10
2018-08-02T07:44:31.976Z,1.50
2018-08-02T07:46:59.978Z,1.17
2018-08-02T07:49:27.963Z,1.77
2018-08-02T07:51:55.999Z,1.40
2018-08-02T07:54:23.924Z,1.50
2018-08-02T07:56:51.995Z,2.00
2018-08-02T07:59:19.993Z,2.23
2018-08-02T08:01:48.002Z,3.83
2018-08-02T08:04:16.070Z,1.50
2018-08-02T08:06:44.052Z,1.47
2018-08-02T08:09:12.864Z,1.67
2018-08-02T08:11:41.343Z,1.20
2018-08-02T08:14:09.393Z,1.60
2018-08-02T08:16:37.421Z,1.60
2018-08-02T08:19:05.424Z,1.60
2018-08-02T08:21:33.409Z,2.00
2018-08-02T08:24:01.542Z,1.80
2018-08-02T08:26:29.572Z,1.60
2018-08-02T08:28:57.556Z,1.60
2018-08-02T08:31:25.608Z,1.33
2018-08-02T08:33:54.277Z,1.63
2018-08-02T08:36:22.279Z,1.27
2018-08-02T08:38:50.329Z,1.60
2018-08-02T08:41:18.312Z,1.40
2018-08-02T08:43:46.372Z,1.63
2018-08-02T08:46:14.554Z,1.23
2018-08-02T08:48:42.560Z,1.53
2018-08-02T08:51:10.583Z,1.30
2018-08-02T08:53:38.584Z,1.97
2018-08-02T08:56:06.560Z,1.63
2018-08-02T08:58:34.916Z,1.50
2018-08-02T09:01:03.013Z,1.53
2018-08-02T09:03:31.072Z,1.47
2018-08-02T09:05:59.021Z,1.60
2018-08-02T09:08:27.061Z,1.30
2018-08-02T09:10:55.241Z,1.27
2018-08-02T09:13:23.264Z,1.90
2018-08-02T09:15:51.245Z,1.50
2018-08-02T09:18:19.327Z,1.90
2018-08-02T09:20:47.351Z,1.40
2018-08-02T09:23:15.403Z,1.60
2018-08-02T09:25:43.528Z,1.60
2018-08-02T09:28:11.620Z,1.57
2018-08-02T09:30:39.651Z,1.37
2018-08-02T09:33:07.874Z,1.83
2018-08-02T09:35:35.799Z,1.63
2018-08-02T09:38:03.853Z,1.40
2018-08-02T09:40:31.861Z,1.50
2018-08-02T09:42:59.894Z,1.83
2018-08-02T09:45:27.896Z,1.60
2018-08-02T09:47:55.912Z,1.80
2018-08-02T09:50:24.108Z,1.47
2018-08-02T09:52:52.304Z,1.70
2018-08-02T09:55:20.305Z,1.73
2018-08-02T09:57:48.308Z,1.57
2018-08-02T10:00:20.491Z,1.30
2018-08-02T10:02:48.527Z,1.67
2018-08-02T10:05:16.509Z,2.00
2018-08-02T10:07:44.480Z,1.73
2018-08-02T10:10:12.472Z,1.60
2018-08-02T10:12:40.509Z,1.33
2018-08-02T10:15:08.480Z,1.13
2018-08-02T10:17:36.504Z,1.70
2018-08-02T10:20:04.586Z,1.50
2018-08-02T10:22:32.704Z,1.77
2018-08-02T10:25:00.697Z,1.60
2018-08-02T10:27:28.808Z,1.60
2018-08-02T10:29:56.809Z,1.90
2018-08-02T10:32:24.843Z,1.50
2018-08-02T10:34:52.973Z,2.33
2018-08-02T10:37:20.991Z,1.70
2018-08-02T10:39:48.993Z,1.97
2018-08-02T10:42:17.105Z,1.53
2018-08-02T10:44:45.171Z,2.00
2018-08-02T10:47:13.160Z,1.93
2018-08-02T10:49:41.157Z,2.10
2018-08-02T10:52:09.241Z,2.40
2018-08-02T10:54:37.292Z,1.97
2018-08-02T10:57:05.265Z,1.40
2018-08-02T10:59:33.254Z,1.57
2018-08-02T11:02:01.415Z,1.90
2018-08-02T11:04:29.397Z,1.70
2018-08-02T11:06:57.468Z,1.40
2018-08-02T11:09:25.543Z,1.80
2018-08-02T11:11:53.452Z,2.00
2018-08-02T11:14:21.537Z,1.43
2018-08-02T11:16:49.509Z,1.93
2018-08-02T11:19:17.500Z,2.00
2018-08-02T11:21:45.508Z,2.20
2018-08-02T11:24:13.497Z,1.80
2018-08-02T11:26:41.584Z,1.83
2018-08-02T11:29:09.580Z,1.87
2018-08-02T11:31:37.597Z,1.43
2018-08-02T11:34:05.624Z,1.97
2018-08-02T11:36:33.724Z,1.70
2018-08-02T11:39:01.728Z,1.60
2018-08-02T11:41:29.833Z,1.77
2018-08-02T11:43:57.835Z,1.73
2018-08-02T11:46:25.808Z,2.20
2018-08-02T11:48:53.872Z,1.50
2018-08-02T11:51:21.879Z,3.20
2018-08-02T11:53:50.090Z,2.40
2018-08-02T11:56:18.158Z,1.87
2018-08-02T11:58:46.136Z,2.20
2018-08-02T12:01:14.138Z,1.60
2018-08-02T12:03:42.173Z,1.73
2018-08-02T12:06:10.172Z,2.03
2018-08-02T12:08:38.197Z,2.07
2018-08-02T12:11:06.612Z,1.70
2018-08-02T12:13:34.804Z,2.30
2018-08-02T12:16:02.969Z,2.00
2018-08-02T12:18:31.144Z,1.80
2018-08-02T12:20:59.120Z,2.77
2018-08-02T12:23:27.123Z,1.97
2018-08-02T12:25:55.160Z,2.03
2018-08-02T12:28:23.140Z,2.20
2018-08-02T12:30:51.253Z,2.00
2018-08-02T12:33:19.226Z,1.80
2018-08-02T12:35:47.332Z,1.93
2018-08-02T12:38:15.418Z,1.90
2018-08-02T12:40:43.513Z,1.73
2018-08-02T12:43:11.497Z,1.87
2018-08-02T12:45:39.477Z,1.63
2018-08-02T12:48:07.469Z,3.07
2018-08-02T12:50:35.458Z,1.80
2018-08-02T12:53:03.521Z,1.83
2018-08-02T12:55:31.505Z,2.03
2018-08-02T12:57:59.594Z,1.47
2018-08-02T13:00:27.590Z,1.70
2018-08-02T13:02:55.681Z,1.77
2018-08-02T13:05:23.652Z,1.80
2018-08-02T13:07:51.652Z,2.17
2018-08-02T13:10:19.810Z,2.90
2018-08-02T13:12:47.821Z,1.70
2018-08-02T13:15:15.797Z,1.83
2018-08-02T13:17:43.824Z,1.43
2018-08-02T13:20:11.824Z,2.27
2018-08-02T13:22:40.976Z,1.60
2018-08-02T13:25:09.080Z,2.37
2018-08-02T13:27:37.141Z,1.90
2018-08-02T13:30:05.704Z,1.87
2018-08-02T13:32:33.836Z,2.10
2018-08-02T13:35:02.015Z,1.77
2018-08-02T13:37:30.082Z,1.97
2018-08-02T13:39:58.065Z,1.90
2018-08-02T13:42:26.092Z,1.67
2018-08-02T13:44:54.075Z,2.20
2018-08-02T13:47:22.078Z,1.60
2018-08-02T13:49:50.117Z,1.83
2018-08-02T13:52:18.164Z,2.03
2018-08-02T13:54:46.265Z,2.60
2018-08-02T13:57:14.296Z,1.60
2018-08-02T13:59:42.369Z,2.00
2018-08-02T14:02:10.469Z,2.00
2018-08-02T14:04:38.640Z,1.70
2018-08-02T14:07:06.718Z,2.17
2018-08-02T14:09:34.704Z,1.80
2018-08-02T14:12:02.700Z,1.80
2018-08-02T14:14:30.731Z,2.17
2018-08-02T14:16:58.909Z,1.50
2018-08-02T14:19:26.910Z,1.87
2018-08-02T14:21:54.908Z,1.77
2018-08-02T14:24:22.901Z,1.80
2018-08-02T14:26:50.945Z,1.63
2018-08-02T14:29:18.935Z,1.97
2018-08-02T14:31:47.058Z,2.20
2018-08-02T14:34:15.061Z,1.73
2018-08-02T14:36:43.033Z,1.90
2018-08-02T14:39:12.248Z,1.57
2018-08-02T14:41:40.596Z,1.90
2018-08-02T14:44:09.284Z,1.93
2018-08-02T14:46:37.344Z,1.97
2018-08-02T14:49:05.389Z,2.13
2018-08-02T14:51:33.356Z,1.90
2018-08-02T14:54:01.577Z,1.80
2018-08-02T14:56:29.548Z,2.00
2018-08-02T14:58:57.554Z,1.90
2018-08-02T15:01:25.520Z,2.20
2018-08-02T15:03:53.512Z,2.17
2018-08-02T15:06:21.484Z,1.80
2018-08-02T15:08:49.559Z,1.60
2018-08-02T15:11:17.549Z,1.77
2018-08-02T15:13:45.564Z,1.70
2018-08-02T15:16:13.600Z,1.80
2018-08-02T15:18:41.596Z,1.40
2018-08-02T15:21:09.588Z,1.77
2018-08-02T15:23:37.589Z,2.07
2018-08-02T15:26:05.636Z,1.83
2018-08-02T15:28:33.639Z,1.83
2018-08-02T15:31:01.634Z,1.60
2018-08-02T15:33:29.641Z,1.80
2018-08-02T15:35:57.616Z,1.83
2018-08-02T15:38:25.608Z,1.60
2018-08-02T15:40:53.729Z,1.83
2018-08-02T15:43:21.732Z,1.97
2018-08-02T15:45:49.813Z,2.10
2018-08-02T15:48:17.814Z,2.03
2018-08-02T15:50:45.820Z,1.70
2018-08-02T15:53:13.855Z,2.40
2018-08-02T15:55:41.862Z,2.27
2018-08-02T15:58:09.856Z,2.03
2018-08-02T16:00:37.876Z,2.20
2018-08-02T16:03:05.890Z,2.60
2018-08-02T16:05:33.906Z,2.00
2018-08-02T16:08:01.974Z,1.83
2018-08-02T16:10:29.977Z,1.90
2018-08-02T16:12:57.961Z,2.00
2018-08-02T16:15:26.010Z,7.13
2018-08-02T16:17:54.010Z,5.43
2018-08-02T16:20:22.059Z,2.60
2018-08-02T16:22:50.105Z,5.70
2018-08-02T16:25:18.160Z,7.30
2018-08-02T16:27:46.225Z,2.10
2018-08-02T16:30:14.273Z,2.80
2018-08-02T16:32:42.188Z,2.17
2018-08-02T16:35:10.244Z,2.63
2018-08-02T16:37:38.285Z,1.93
2018-08-02T16:40:06.524Z,1.77
2018-08-02T16:42:34.524Z,2.13
2018-08-02T16:45:02.513Z,2.10
2018-08-02T16:47:30.541Z,2.30
2018-08-02T16:49:58.599Z,2.17
2018-08-02T16:52:26.710Z,2.50
2018-08-02T16:54:54.768Z,2.53
2018-08-02T16:57:22.788Z,1.90
2018-08-02T16:59:50.951Z,2.00
2018-08-02T17:02:18.973Z,2.20
2018-08-02T17:04:47.053Z,2.23
2018-08-02T17:07:15.157Z,2.37
2018-08-02T17:09:43.199Z,2.00
2018-08-02T17:12:11.224Z,3.03
2018-08-02T17:14:39.491Z,1.90
2018-08-02T17:17:07.493Z,2.17
2018-08-02T17:19:35.518Z,1.97
2018-08-02T17:22:03.588Z,2.30
2018-08-02T17:24:31.576Z,2.17
2018-08-02T17:26:59.568Z,1.70
2018-08-02T17:29:27.597Z,2.20
2018-08-02T17:31:55.596Z,2.27
2018-08-02T17:34:23.721Z,2.10
2018-08-02T17:36:51.737Z,1.83
2018-08-02T17:39:19.739Z,1.93
2018-08-02T17:41:47.880Z,2.20
2018-08-02T17:44:15.898Z,2.40
2018-08-02T17:46:43.969Z,1.93
2018-08-02T17:49:11.962Z,2.40
2018-08-02T17:51:40.073Z,1.80
2018-08-02T17:54:08.129Z,1.77
2018-08-02T17:56:36.062Z,2.20
2018-08-02T17:59:04.068Z,1.97
2018-08-02T18:01:32.165Z,2.70
2018-08-02T18:04:00.162Z,2.13
2018-08-02T18:06:28.167Z,2.20
2018-08-02T18:08:56.219Z,1.90
2018-08-02T18:11:24.232Z,3.10
2018-08-02T18:13:52.464Z,3.17
2018-08-02T18:16:20.489Z,2.43
2018-08-02T18:18:48.495Z,2.03
2018-08-02T18:21:16.497Z,1.90
2018-08-02T18:23:44.519Z,2.00
2018-08-02T18:26:12.568Z,2.50
2018-08-02T18:28:40.707Z,1.90
2018-08-02T18:31:08.734Z,2.33
2018-08-02T18:33:37.158Z,3.17
2018-08-02T18:36:05.163Z,2.30
2018-08-02T18:38:33.181Z,2.40
2018-08-02T18:41:01.233Z,2.17
2018-08-02T18:43:29.221Z,2.40
2018-08-02T18:45:58.344Z,1.93
2018-08-02T18:48:27.330Z,2.93
2018-08-02T18:50:55.372Z,2.37
2018-08-02T18:53:23.386Z,2.30
2018-08-02T18:55:51.358Z,2.60
2018-08-02T18:58:19.502Z,2.30
2018-08-02T19:00:47.629Z,2.43
2018-08-02T19:03:15.871Z,2.33
2018-08-02T19:05:43.873Z,2.70
2018-08-02T19:08:11.889Z,2.40
2018-08-02T19:10:39.938Z,2.90
2018-08-02T19:13:07.930Z,2.87
2018-08-02T19:15:36.107Z,2.70
2018-08-02T19:18:04.069Z,2.40
2018-08-02T19:20:32.151Z,2.57
2018-08-02T19:23:00.621Z,2.40
2018-08-02T19:25:28.603Z,3.10
2018-08-02T19:27:56.661Z,2.60
2018-08-02T19:30:24.798Z,2.30
2018-08-02T19:32:52.873Z,2.30
2018-08-02T19:35:21.077Z,2.50
2018-08-02T19:37:49.250Z,2.77
2018-08-02T19:40:17.513Z,2.50
2018-08-02T19:42:45.817Z,2.70
2018-08-02T19:45:13.881Z,3.30
2018-08-02T19:47:42.093Z,2.97
2018-08-02T19:50:10.242Z,2.83
2018-08-02T19:52:38.334Z,3.57
2018-08-02T19:55:06.569Z,2.67
2018-08-02T19:57:34.767Z,3.00
2018-08-02T20:00:02.882Z,3.10
2018-08-02T20:02:30.984Z,3.07
2018-08-02T20:04:59.006Z,3.50
2018-08-02T20:07:27.197Z,2.93
2018-08-02T20:09:55.285Z,3.20
2018-08-02T20:12:23.329Z,3.40
2018-08-02T20:14:51.577Z,2.73
2018-08-02T20:17:19.701Z,3.03
2018-08-02T20:19:47.851Z,3.10
2018-08-02T20:22:17.757Z,3.20
2018-08-02T20:24:46.330Z,2.77
2018-08-02T20:27:14.745Z,3.20
2018-08-02T20:29:42.903Z,3.23
2018-08-02T20:32:11.382Z,2.97
2018-08-02T20:34:39.760Z,2.90
2018-08-02T20:37:08.005Z,2.90
2018-08-02T20:39:36.113Z,2.93
2018-08-02T20:42:04.121Z,3.03
2018-08-02T20:44:32.220Z,3.47
2018-08-02T20:47:00.342Z,3.37
2018-08-02T20:49:28.557Z,3.27
2018-08-02T20:51:56.767Z,3.20
2018-08-02T20:54:25.049Z,3.30
2018-08-02T20:56:53.096Z,3.73
2018-08-02T20:59:21.157Z,3.70
2018-08-02T21:01:49.386Z,3.53
2018-08-02T21:04:17.455Z,3.63
2018-08-02T21:06:45.468Z,4.00
2018-08-02T21:09:14.579Z,4.27
2018-08-02T21:11:42.560Z,3.97
2018-08-02T21:14:10.666Z,3.40
2018-08-02T21:16:38.670Z,4.47
2018-08-02T21:19:06.693Z,3.13
2018-08-02T21:21:34.713Z,3.07
2018-08-02T21:24:02.751Z,3.17
2018-08-02T21:26:30.768Z,3.10
2018-08-02T21:28:58.838Z,3.80
2018-08-02T21:31:26.813Z,3.30
2018-08-02T21:33:54.878Z,3.40
2018-08-02T21:36:22.885Z,3.10
2018-08-02T21:38:51.002Z,3.10
2018-08-02T21:41:19.093Z,3.50
2018-08-02T21:43:48.200Z,3.53
2018-08-02T21:46:16.311Z,3.50
2018-08-02T21:48:44.325Z,3.80
2018-08-02T21:51:12.492Z,4.00
2018-08-02T21:53:40.492Z,4.27
2018-08-02T21:56:08.490Z,4.33
2018-08-02T21:58:36.505Z,4.07
2018-08-02T22:01:04.546Z,4.07
2018-08-02T22:03:32.702Z,3.67
2018-08-02T22:06:04.904Z,4.07
2018-08-02T22:08:32.957Z,3.80
2018-08-02T22:11:00.972Z,4.00
2018-08-02T22:13:34.548Z,3.80
2018-08-02T22:16:02.554Z,4.17
2018-08-02T22:18:30.597Z,3.80
2018-08-02T22:20:58.726Z,4.57
2018-08-02T22:23:26.725Z,3.90
2018-08-02T22:25:54.732Z,4.33
2018-08-02T22:28:22.736Z,5.03
2018-08-02T22:30:50.706Z,4.60
2018-08-02T22:33:18.717Z,4.20
2018-08-02T22:35:46.714Z,4.97
2018-08-02T22:38:14.809Z,3.83
2018-08-02T22:40:42.821Z,4.63
2018-08-02T22:43:10.878Z,3.80
2018-08-02T22:45:39.685Z,3.97
2018-08-02T22:48:07.699Z,5.00
2018-08-02T22:50:35.706Z,4.00
2018-08-02T22:53:03.702Z,4.57
2018-08-02T22:55:31.725Z,4.33
2018-08-02T22:57:59.733Z,3.80
2018-08-02T23:00:27.765Z,3.87
2018-08-02T23:02:55.825Z,4.27
2018-08-02T23:05:23.847Z,4.30
2018-08-02T23:07:51.816Z,4.50
2018-08-02T23:10:19.815Z,4.40
2018-08-02T23:12:47.921Z,4.07
2018-08-02T23:15:15.916Z,4.47
2018-08-02T23:17:43.940Z,4.17
2018-08-02T23:20:11.960Z,4.03
2018-08-02T23:22:46.712Z,4.90
2018-08-02T23:25:14.726Z,3.63
2018-08-02T23:27:42.988Z,4.10
2018-08-02T23:30:11.000Z,4.30
2018-08-02T23:32:39.004Z,3.83
2018-08-02T23:35:07.036Z,4.10
2018-08-02T23:37:35.041Z,4.33
2018-08-02T23:40:03.049Z,3.63
2018-08-02T23:42:31.052Z,4.03
2018-08-02T23:44:59.096Z,4.77
2018-08-02T23:47:27.129Z,4.23
2018-08-02T23:49:55.139Z,4.60
2018-08-02T23:52:23.127Z,3.90
2018-08-02T23:54:51.152Z,4.40
2018-08-02T23:57:19.153Z,3.80
2018-08-02T23:59:47.315Z,4.40
